createdAt,value
2019-05-29T00:02:08.710Z,3.00
2019-05-29T00:04:42.080Z,3.27
2019-05-29T00:07:15.557Z,2.92
2019-05-29T00:09:48.945Z,2.80
2019-05-29T00:12:22.304Z,2.50
2019-05-29T00:14:55.688Z,2.95
2019-05-29T00:17:29.031Z,3.37
2019-05-29T00:20:02.338Z,2.92
2019-05-29T00:22:35.702Z,2.87
2019-05-29T00:25:10.501Z,2.90
2019-05-29T00:27:43.982Z,3.60
2019-05-29T00:30:19.821Z,2.40
2019-05-29T00:32:53.156Z,2.12
2019-05-29T00:35:26.531Z,2.12
2019-05-29T00:37:59.789Z,2.67
2019-05-29T00:40:34.268Z,2.25
2019-05-29T00:43:09.091Z,1.82
2019-05-29T00:45:42.404Z,1.90
2019-05-29T00:48:16.114Z,2.12
2019-05-29T00:50:49.545Z,1.90
2019-05-29T00:53:23.915Z,1.62
2019-05-29T00:55:57.289Z,1.60
2019-05-29T00:58:31.640Z,1.98
2019-05-29T01:01:05.095Z,1.87
2019-05-29T01:03:38.457Z,2.10
2019-05-29T01:06:12.077Z,2.00
2019-05-29T01:08:45.709Z,1.72
2019-05-29T01:11:19.108Z,2.00
2019-05-29T01:13:53.833Z,1.80
2019-05-29T01:16:27.231Z,1.62
2019-05-29T01:19:20.289Z,1.62
2019-05-29T01:21:53.930Z,1.98
2019-05-29T01:24:28.451Z,1.37
2019-05-29T01:27:01.909Z,1.70
2019-05-29T01:29:35.302Z,1.67
2019-05-29T01:32:08.710Z,1.70
2019-05-29T01:34:42.412Z,1.95
2019-05-29T01:37:16.150Z,1.67
2019-05-29T01:39:49.542Z,1.82
2019-05-29T01:42:24.299Z,1.87
2019-05-29T01:45:07.294Z,1.45
2019-05-29T01:47:32.817Z,1.65
2019-05-29T01:50:06.337Z,1.22
2019-05-29T01:52:40.880Z,1.35
2019-05-29T01:55:15.752Z,1.65
2019-05-29T01:57:50.603Z,1.67
2019-05-29T02:00:24.701Z,2.05
2019-05-29T02:02:59.440Z,1.70
2019-05-29T02:05:32.891Z,2.02
2019-05-29T02:08:06.300Z,1.90
2019-05-29T02:10:39.670Z,1.70
2019-05-29T02:13:13.062Z,1.72
2019-05-29T02:15:46.461Z,1.45
2019-05-29T02:18:20.770Z,2.27
2019-05-29T02:20:54.253Z,2.20
2019-05-29T02:23:28.304Z,2.30
2019-05-29T02:26:01.678Z,1.80
2019-05-29T02:28:36.108Z,2.05
2019-05-29T02:31:09.477Z,1.92
2019-05-29T02:33:42.852Z,2.30
2019-05-29T02:36:17.720Z,2.90
2019-05-29T02:38:51.333Z,2.92
2019-05-29T02:41:26.178Z,2.25
2019-05-29T02:43:59.697Z,1.98
2019-05-29T02:46:33.100Z,1.87
2019-05-29T02:49:06.529Z,1.80
2019-05-29T02:51:41.027Z,2.20
2019-05-29T02:54:14.436Z,2.20
2019-05-29T02:56:47.759Z,4.12
2019-05-29T02:59:21.320Z,5.20
2019-05-29T03:01:57.244Z,6.20
2019-05-29T03:04:32.546Z,3.35
2019-05-29T03:07:05.875Z,2.50
2019-05-29T03:09:39.437Z,2.30
2019-05-29T03:12:12.872Z,3.20
2019-05-29T03:14:46.313Z,3.33
2019-05-29T03:17:19.734Z,4.92
2019-05-29T03:19:53.154Z,3.27
2019-05-29T03:22:28.792Z,3.87
2019-05-29T03:25:03.005Z,7.37
2019-05-29T03:27:38.027Z,5.62
2019-05-29T03:30:11.491Z,5.25
2019-05-29T03:32:48.430Z,10.00
2019-05-29T03:35:22.343Z,6.25
2019-05-29T03:37:58.825Z,4.10
2019-05-29T03:40:33.137Z,4.05
2019-05-29T03:43:06.305Z,2.77
2019-05-29T03:45:39.782Z,2.80
2019-05-29T03:48:13.385Z,2.70
2019-05-29T03:50:46.775Z,2.00
2019-05-29T03:53:20.173Z,2.20
2019-05-29T03:55:53.588Z,3.65
2019-05-29T03:58:28.915Z,9.43
2019-05-29T04:01:02.395Z,6.92
2019-05-29T04:03:37.712Z,9.73
2019-05-29T04:06:10.784Z,9.28
2019-05-29T04:08:44.233Z,10.85
2019-05-29T04:11:17.677Z,9.13
2019-05-29T04:13:51.309Z,11.68
2019-05-29T04:16:27.550Z,10.10
2019-05-29T04:19:02.120Z,10.30
2019-05-29T04:21:36.390Z,3.92
2019-05-29T04:24:11.615Z,5.03
2019-05-29T04:26:48.086Z,4.40
2019-05-29T04:29:22.947Z,4.42
2019-05-29T04:31:56.211Z,5.72
2019-05-29T04:34:30.182Z,8.53
2019-05-29T04:37:07.289Z,4.60
2019-05-29T04:39:43.907Z,5.65
2019-05-29T04:42:17.243Z,4.25
2019-05-29T04:44:50.413Z,2.50
2019-05-29T04:47:23.656Z,2.40
2019-05-29T04:49:56.921Z,2.37
2019-05-29T04:52:31.389Z,1.80
2019-05-29T04:55:05.126Z,1.90
2019-05-29T04:57:39.287Z,1.75
2019-05-29T05:00:14.174Z,1.80
2019-05-29T05:02:48.049Z,1.70
2019-05-29T05:05:21.275Z,1.40
2019-05-29T05:07:54.632Z,2.00
2019-05-29T05:10:41.035Z,1.75
2019-05-29T05:13:14.596Z,2.20
2019-05-29T05:15:48.252Z,1.90
2019-05-29T05:18:21.620Z,2.27
2019-05-29T05:20:54.839Z,15.25
2019-05-29T05:23:29.952Z,46.30
2019-05-29T05:26:03.255Z,10.00
2019-05-29T05:28:36.553Z,6.30
2019-05-29T05:31:09.823Z,4.85
2019-05-29T05:33:43.096Z,2.95
2019-05-29T05:36:17.414Z,3.83
2019-05-29T05:38:50.661Z,3.58
2019-05-29T05:41:23.885Z,3.72
2019-05-29T05:43:57.207Z,3.72
2019-05-29T05:46:30.978Z,3.40
2019-05-29T05:49:04.234Z,3.10
2019-05-29T05:51:41.129Z,2.67
2019-05-29T05:54:12.254Z,2.75
2019-05-29T05:56:46.075Z,2.67
2019-05-29T05:59:19.264Z,2.67
2019-05-29T06:01:52.492Z,2.42
2019-05-29T06:04:25.880Z,1.92
2019-05-29T06:06:59.158Z,1.95
2019-05-29T06:09:32.670Z,2.10
2019-05-29T06:12:06.052Z,2.42
2019-05-29T06:14:40.555Z,1.90
2019-05-29T06:17:13.806Z,2.08
2019-05-29T06:19:48.007Z,3.22
2019-05-29T06:22:21.234Z,1.98
2019-05-29T06:24:54.536Z,2.37
2019-05-29T06:27:27.682Z,3.17
2019-05-29T06:30:00.877Z,2.37
2019-05-29T06:32:35.262Z,1.87
2019-05-29T06:35:09.334Z,1.75
2019-05-29T06:37:43.642Z,1.87
2019-05-29T06:40:38.210Z,1.70
2019-05-29T06:43:23.636Z,1.90
2019-05-29T06:45:58.306Z,2.10
2019-05-29T06:48:46.645Z,1.65
2019-05-29T06:51:06.801Z,1.80
2019-05-29T06:53:39.945Z,1.50
2019-05-29T06:56:13.231Z,1.60
2019-05-29T06:58:46.434Z,1.60
2019-05-29T07:01:19.883Z,2.33
2019-05-29T07:04:10.720Z,1.10
2019-05-29T07:06:28.012Z,1.65
2019-05-29T07:09:01.216Z,1.27
2019-05-29T07:11:35.203Z,1.50
2019-05-29T07:14:09.418Z,1.25
2019-05-29T07:16:51.524Z,1.30
2019-05-29T07:19:25.731Z,3.33
2019-05-29T07:21:53.557Z,4.42
2019-05-29T07:24:27.476Z,4.90
2019-05-29T07:27:00.720Z,4.00
2019-05-29T07:29:33.971Z,2.90
2019-05-29T07:32:07.287Z,1.98
2019-05-29T07:34:55.215Z,2.83
2019-05-29T07:37:15.443Z,1.60
2019-05-29T07:39:48.742Z,2.15
2019-05-29T07:42:22.018Z,1.17
2019-05-29T07:44:55.230Z,2.08
2019-05-29T07:47:28.495Z,1.55
2019-05-29T07:50:01.705Z,1.30
2019-05-29T07:52:34.981Z,1.10
2019-05-29T07:55:09.989Z,2.42
2019-05-29T07:57:44.797Z,1.40
2019-05-29T08:00:19.501Z,3.00
2019-05-29T08:02:52.740Z,2.98
2019-05-29T08:05:26.027Z,1.90
2019-05-29T08:07:59.181Z,1.45
2019-05-29T08:10:32.363Z,1.50
2019-05-29T08:13:05.928Z,2.10
2019-05-29T08:15:54.984Z,2.35
2019-05-29T08:18:13.987Z,2.10
2019-05-29T08:20:48.179Z,1.90
2019-05-29T08:23:21.552Z,2.25
2019-05-29T08:25:54.795Z,2.00
2019-05-29T08:28:28.128Z,1.75
2019-05-29T08:31:01.352Z,2.00
2019-05-29T08:33:34.670Z,1.77
2019-05-29T08:36:07.930Z,4.30
2019-05-29T08:38:43.803Z,1.67
2019-05-29T08:41:16.124Z,2.37
2019-05-29T08:43:50.607Z,4.90
2019-05-29T08:46:24.097Z,2.40
2019-05-29T08:48:57.449Z,2.47
2019-05-29T08:51:30.642Z,2.27
2019-05-29T08:54:21.044Z,1.80
2019-05-29T08:56:38.829Z,3.77
2019-05-29T08:59:12.078Z,2.05
2019-05-29T09:01:48.320Z,2.05
2019-05-29T09:04:21.548Z,4.05
2019-05-29T09:06:54.769Z,2.90
2019-05-29T09:09:28.033Z,2.20
2019-05-29T09:12:01.262Z,1.67
2019-05-29T09:14:34.526Z,8.35
2019-05-29T09:17:09.201Z,11.63
2019-05-29T09:19:42.453Z,2.27
2019-05-29T09:22:16.503Z,1.55
2019-05-29T09:24:49.916Z,4.42
2019-05-29T09:27:23.357Z,1.75
2019-05-29T09:29:56.612Z,2.30
2019-05-29T09:32:48.904Z,5.03
2019-05-29T09:35:05.069Z,2.25
2019-05-29T09:37:38.267Z,1.90
2019-05-29T09:40:19.249Z,1.40
2019-05-29T09:42:53.090Z,1.20
2019-05-29T09:45:26.381Z,1.02
2019-05-29T09:47:59.706Z,1.10
2019-05-29T09:50:49.606Z,1.20
2019-05-29T09:53:08.192Z,0.93
2019-05-29T09:55:41.865Z,1.37
2019-05-29T09:58:15.197Z,1.15
2019-05-29T10:01:09.545Z,1.10
2019-05-29T10:03:24.199Z,1.15
2019-05-29T10:05:57.638Z,1.10
2019-05-29T10:08:30.894Z,1.47
2019-05-29T10:11:08.677Z,1.32
2019-05-29T10:13:38.992Z,1.32
2019-05-29T10:16:13.012Z,1.15
2019-05-29T10:18:47.238Z,1.07
2019-05-29T10:21:38.173Z,1.15
2019-05-29T10:23:56.595Z,1.10
2019-05-29T10:26:30.246Z,1.30
2019-05-29T10:29:08.581Z,1.35
2019-05-29T10:31:38.990Z,1.20
2019-05-29T10:34:12.490Z,1.17
2019-05-29T10:36:48.256Z,1.35
2019-05-29T10:39:20.676Z,1.30
2019-05-29T10:41:54.392Z,1.52
2019-05-29T10:44:27.663Z,1.20
2019-05-29T10:47:01.152Z,1.32
2019-05-29T10:49:34.669Z,1.05
2019-05-29T10:52:15.540Z,1.62
2019-05-29T10:54:44.102Z,1.35
2019-05-29T10:57:17.602Z,1.20
2019-05-29T10:59:51.083Z,1.30
2019-05-29T11:02:24.592Z,1.70
2019-05-29T11:04:59.463Z,1.47
2019-05-29T11:07:33.191Z,1.42
2019-05-29T11:10:07.425Z,1.17
2019-05-29T11:12:40.684Z,1.10
2019-05-29T11:15:21.425Z,1.40
2019-05-29T11:17:51.431Z,1.20
2019-05-29T11:20:25.610Z,2.22
2019-05-29T11:22:59.049Z,3.98
2019-05-29T11:25:32.428Z,1.45
2019-05-29T11:28:05.705Z,1.35
2019-05-29T11:30:38.840Z,1.50
2019-05-29T11:33:12.035Z,1.20
2019-05-29T11:35:58.062Z,1.70
2019-05-29T11:38:20.154Z,1.65
2019-05-29T11:41:20.431Z,2.00
2019-05-29T11:43:28.476Z,1.98
2019-05-29T11:46:02.111Z,1.10
2019-05-29T11:48:35.501Z,0.80
2019-05-29T11:51:08.736Z,1.30
2019-05-29T11:53:41.930Z,1.12
2019-05-29T11:56:15.185Z,1.25
2019-05-29T11:58:50.727Z,1.32
2019-05-29T12:01:24.440Z,1.10
2019-05-29T12:04:21.895Z,1.10
2019-05-29T12:06:33.254Z,1.22
2019-05-29T12:09:10.077Z,1.37
2019-05-29T12:11:43.433Z,1.60
2019-05-29T12:14:16.699Z,0.82
2019-05-29T12:16:51.643Z,1.20
2019-05-29T12:19:25.631Z,0.90
2019-05-29T12:22:00.449Z,0.80
2019-05-29T12:24:34.098Z,1.30
2019-05-29T12:27:07.890Z,0.90
2019-05-29T12:29:41.448Z,1.00
2019-05-29T12:32:14.907Z,0.98
2019-05-29T12:34:53.448Z,1.10
2019-05-29T12:37:23.131Z,0.85
2019-05-29T12:39:57.435Z,1.00
2019-05-29T12:42:30.746Z,1.02
2019-05-29T12:45:04.360Z,1.02
2019-05-29T12:47:37.747Z,0.80
2019-05-29T12:50:12.935Z,0.78
2019-05-29T12:52:46.293Z,1.00
2019-05-29T12:55:19.763Z,1.02
2019-05-29T12:57:53.821Z,0.72
2019-05-29T13:00:27.692Z,0.90
2019-05-29T13:03:02.913Z,0.95
2019-05-29T13:05:37.932Z,0.90
2019-05-29T13:08:11.268Z,0.72
2019-05-29T13:10:45.019Z,1.10
2019-05-29T13:13:18.549Z,1.10
2019-05-29T13:15:51.945Z,0.70
2019-05-29T13:18:25.176Z,0.80
2019-05-29T13:20:58.923Z,0.70
2019-05-29T13:23:44.638Z,0.75
2019-05-29T13:26:08.292Z,0.82
2019-05-29T13:28:41.519Z,1.07
2019-05-29T13:31:15.235Z,0.90
2019-05-29T13:33:48.479Z,1.22
2019-05-29T13:36:21.728Z,1.22
2019-05-29T13:38:55.973Z,0.88
2019-05-29T13:41:29.845Z,1.05
2019-05-29T13:44:04.636Z,1.47
2019-05-29T13:46:38.426Z,0.90
2019-05-29T13:49:11.661Z,2.22
2019-05-29T13:51:45.707Z,1.65
2019-05-29T13:54:19.092Z,1.32
2019-05-29T13:56:52.458Z,1.07
2019-05-29T13:59:25.730Z,0.98
2019-05-29T14:02:00.227Z,1.27
2019-05-29T14:04:35.418Z,1.72
2019-05-29T14:07:08.920Z,1.92
2019-05-29T14:09:42.266Z,5.65
2019-05-29T14:12:15.987Z,1.95
2019-05-29T14:14:49.294Z,2.52
2019-05-29T14:17:22.453Z,1.70
2019-05-29T14:19:55.673Z,1.10
2019-05-29T14:22:29.005Z,2.45
2019-05-29T14:25:03.242Z,1.15
2019-05-29T14:27:36.577Z,1.00
2019-05-29T14:30:10.894Z,1.37
2019-05-29T14:32:44.511Z,1.02
2019-05-29T14:35:17.857Z,0.90
2019-05-29T14:37:51.276Z,1.40
2019-05-29T14:40:26.157Z,1.82
2019-05-29T14:43:00.020Z,2.33
2019-05-29T14:45:33.334Z,1.05
2019-05-29T14:48:06.581Z,0.93
2019-05-29T14:50:40.098Z,0.90
2019-05-29T14:53:13.602Z,1.07
2019-05-29T14:55:47.042Z,1.25
2019-05-29T14:58:20.231Z,1.27
2019-05-29T15:00:53.556Z,1.10
2019-05-29T15:03:26.818Z,1.45
2019-05-29T15:06:00.167Z,1.05
2019-05-29T15:08:33.447Z,1.45
2019-05-29T15:11:08.406Z,1.72
2019-05-29T15:13:41.733Z,1.55
2019-05-29T15:16:15.010Z,1.40
2019-05-29T15:18:48.196Z,1.75
2019-05-29T15:21:21.454Z,1.62
2019-05-29T15:23:54.709Z,1.75
2019-05-29T15:26:27.957Z,3.20
2019-05-29T15:29:01.678Z,3.42
2019-05-29T15:31:34.889Z,2.02
2019-05-29T15:34:10.280Z,1.40
2019-05-29T15:36:44.100Z,1.40
2019-05-29T15:39:17.445Z,1.77
2019-05-29T15:41:50.756Z,1.10
2019-05-29T15:44:24.020Z,1.00
2019-05-29T15:46:57.257Z,1.17
2019-05-29T15:49:31.572Z,1.35
2019-05-29T15:52:04.993Z,1.82
2019-05-29T15:54:38.545Z,1.87
2019-05-29T15:57:13.088Z,1.92
2019-05-29T15:59:46.505Z,1.30
2019-05-29T16:02:19.845Z,1.37
2019-05-29T16:04:54.607Z,1.70
2019-05-29T16:07:27.848Z,2.02
2019-05-29T16:10:02.115Z,2.20
2019-05-29T16:12:35.412Z,1.55
2019-05-29T16:15:11.076Z,1.82
2019-05-29T16:17:44.528Z,1.70
2019-05-29T16:20:18.650Z,1.12
2019-05-29T16:22:52.186Z,1.57
2019-05-29T16:25:39.421Z,1.37
2019-05-29T16:28:00.318Z,1.42
2019-05-29T16:30:33.662Z,1.67
2019-05-29T16:33:06.901Z,1.30
2019-05-29T16:35:40.216Z,1.50
2019-05-29T16:38:14.040Z,1.07
2019-05-29T16:40:47.750Z,1.57
2019-05-29T16:43:22.220Z,1.20
2019-05-29T16:45:56.764Z,1.10
2019-05-29T16:48:30.046Z,1.60
2019-05-29T16:51:03.408Z,1.60
2019-05-29T16:53:36.669Z,1.77
2019-05-29T16:56:10.056Z,1.10
2019-05-29T16:58:43.294Z,1.00
2019-05-29T17:01:19.388Z,1.20
2019-05-29T17:03:53.011Z,0.93
2019-05-29T17:06:26.318Z,1.42
2019-05-29T17:09:01.970Z,2.60
2019-05-29T17:11:35.781Z,2.15
2019-05-29T17:14:09.559Z,18.57
2019-05-29T17:16:42.978Z,3.92
2019-05-29T17:19:16.609Z,2.15
2019-05-29T17:21:49.861Z,1.65
2019-05-29T17:24:23.186Z,1.60
2019-05-29T17:26:56.446Z,1.62
2019-05-29T17:29:29.678Z,2.67
2019-05-29T17:32:02.946Z,2.75
2019-05-29T17:34:36.113Z,2.22
2019-05-29T17:37:09.444Z,3.58
2019-05-29T17:39:42.770Z,2.65
2019-05-29T17:42:20.221Z,3.15
2019-05-29T17:44:53.561Z,1.77
2019-05-29T17:47:26.910Z,1.72
2019-05-29T17:50:00.217Z,2.20
2019-05-29T17:52:34.469Z,2.20
2019-05-29T17:55:08.180Z,1.90
2019-05-29T17:57:41.696Z,1.90
2019-05-29T18:00:20.565Z,1.70
2019-05-29T18:02:54.642Z,1.72
2019-05-29T18:05:28.972Z,2.00
2019-05-29T18:08:02.412Z,2.35
2019-05-29T18:10:35.811Z,4.12
2019-05-29T18:13:09.228Z,5.83
2019-05-29T18:15:42.657Z,9.43
2019-05-29T18:18:17.351Z,23.92
2019-05-29T18:20:50.847Z,63.98
2019-05-29T18:23:24.294Z,56.08
2019-05-29T18:25:58.576Z,39.60
2019-05-29T18:28:33.690Z,35.20
2019-05-29T18:31:07.046Z,26.97
2019-05-29T18:33:41.195Z,16.17
2019-05-29T18:36:14.463Z,5.17
2019-05-29T18:38:47.828Z,3.40
2019-05-29T18:41:22.227Z,2.72
2019-05-29T18:43:55.727Z,2.45
2019-05-29T18:46:30.068Z,6.15
2019-05-29T18:49:04.434Z,6.53
2019-05-29T18:51:37.736Z,6.60
2019-05-29T18:54:11.121Z,6.47
2019-05-29T18:56:44.409Z,7.10
2019-05-29T18:59:18.725Z,7.50
2019-05-29T19:01:52.254Z,8.80
2019-05-29T19:04:25.994Z,9.40
2019-05-29T19:06:59.523Z,11.48
2019-05-29T19:09:33.230Z,8.53
2019-05-29T19:12:06.486Z,8.43
2019-05-29T19:14:39.853Z,5.40
2019-05-29T19:17:13.125Z,6.97
2019-05-29T19:19:46.446Z,5.62
2019-05-29T19:22:19.689Z,4.97
2019-05-29T19:24:53.366Z,6.47
2019-05-29T19:27:33.245Z,7.00
2019-05-29T19:30:01.605Z,7.60
2019-05-29T19:32:35.555Z,5.80
2019-05-29T19:35:09.770Z,4.72
2019-05-29T19:37:43.157Z,4.53
2019-05-29T19:40:16.726Z,4.72
2019-05-29T19:42:50.069Z,6.03
2019-05-29T19:45:24.632Z,5.08
2019-05-29T19:47:59.037Z,5.47
2019-05-29T19:50:32.922Z,6.92
2019-05-29T19:53:06.352Z,23.12
2019-05-29T19:55:39.629Z,23.05
2019-05-29T19:58:13.287Z,28.12
2019-05-29T20:00:46.616Z,47.90
2019-05-29T20:03:20.274Z,23.27
2019-05-29T20:05:53.684Z,10.65
2019-05-29T20:08:27.096Z,12.40
2019-05-29T20:11:00.713Z,16.05
2019-05-29T20:13:34.072Z,15.98
2019-05-29T20:16:08.678Z,16.05
2019-05-29T20:18:42.017Z,24.15
2019-05-29T20:21:15.284Z,14.13
2019-05-29T20:23:48.647Z,6.05
2019-05-29T20:26:22.132Z,5.35
2019-05-29T20:28:55.472Z,3.60
2019-05-29T20:31:28.806Z,3.02
2019-05-29T20:34:02.106Z,6.85
2019-05-29T20:36:37.242Z,5.37
2019-05-29T20:39:10.302Z,4.28
2019-05-29T20:41:43.694Z,3.90
2019-05-29T20:44:16.888Z,3.12
2019-05-29T20:46:50.192Z,4.50
2019-05-29T20:49:23.564Z,4.40
2019-05-29T20:51:56.899Z,3.83
2019-05-29T20:54:31.557Z,3.37
2019-05-29T20:57:18.015Z,3.77
2019-05-29T21:00:25.285Z,4.35
2019-05-29T21:03:00.754Z,3.72
2019-05-29T21:05:36.719Z,4.55
2019-05-29T21:08:10.613Z,4.30
2019-05-29T21:10:45.363Z,2.47
2019-05-29T21:13:20.400Z,2.67
2019-05-29T21:15:54.025Z,2.33
2019-05-29T21:18:31.165Z,1.92
2019-05-29T21:21:04.708Z,2.20
2019-05-29T21:23:38.891Z,2.08
2019-05-29T21:26:12.368Z,2.58
2019-05-29T21:28:50.473Z,2.50
2019-05-29T21:31:20.830Z,1.82
2019-05-29T21:33:54.250Z,2.05
2019-05-29T21:36:28.439Z,1.98
2019-05-29T21:39:01.872Z,2.50
2019-05-29T21:41:36.288Z,2.02
2019-05-29T21:44:09.805Z,1.67
2019-05-29T21:46:43.257Z,1.50
2019-05-29T21:49:16.730Z,1.60
2019-05-29T21:51:50.140Z,1.42
2019-05-29T21:54:23.528Z,1.70
2019-05-29T21:56:56.895Z,1.50
2019-05-29T21:59:30.495Z,2.00
2019-05-29T22:02:04.547Z,1.57
2019-05-29T22:04:38.376Z,1.60
2019-05-29T22:07:11.798Z,2.05
2019-05-29T22:09:45.317Z,1.30
2019-05-29T22:12:18.834Z,1.55
2019-05-29T22:14:53.335Z,1.50
2019-05-29T22:17:27.229Z,1.62
2019-05-29T22:20:01.154Z,1.57
2019-05-29T22:22:34.660Z,1.47
2019-05-29T22:25:08.520Z,1.52
2019-05-29T22:27:41.937Z,1.50
2019-05-29T22:30:15.749Z,1.40
2019-05-29T22:32:49.099Z,1.50
2019-05-29T22:35:22.772Z,1.30
2019-05-29T22:37:57.553Z,1.22
2019-05-29T22:40:31.168Z,1.40
2019-05-29T22:43:04.691Z,1.70
2019-05-29T22:45:38.465Z,1.50
2019-05-29T22:48:11.987Z,1.55
2019-05-29T22:50:45.405Z,1.40
2019-05-29T22:53:19.748Z,1.30
2019-05-29T22:55:54.064Z,1.52
2019-05-29T22:58:27.492Z,1.55
2019-05-29T23:01:02.231Z,1.45
2019-05-29T23:03:35.662Z,1.40
2019-05-29T23:06:09.142Z,1.72
2019-05-29T23:08:43.673Z,1.90
2019-05-29T23:11:17.003Z,2.55
2019-05-29T23:13:50.382Z,2.45
2019-05-29T23:16:23.798Z,2.17
2019-05-29T23:18:57.116Z,2.30
2019-05-29T23:21:30.688Z,2.50
2019-05-29T23:24:04.012Z,3.33
2019-05-29T23:26:37.338Z,3.30
2019-05-29T23:29:10.720Z,3.42
2019-05-29T23:31:44.098Z,3.47
2019-05-29T23:34:17.508Z,3.00
2019-05-29T23:36:50.977Z,3.72
2019-05-29T23:39:24.406Z,4.05
2019-05-29T23:41:57.851Z,4.55
2019-05-29T23:44:31.274Z,5.50
2019-05-29T23:47:05.707Z,4.75
2019-05-29T23:49:39.112Z,5.03
2019-05-29T23:52:12.590Z,4.58
2019-05-29T23:54:46.065Z,2.83
2019-05-29T23:57:19.347Z,2.33
